createdAt,value
2022-09-13T00:00:00.606Z,13.30
2022-09-13T00:02:28.059Z,13.20
2022-09-13T00:04:55.652Z,13.30
2022-09-13T00:07:23.158Z,13.20
2022-09-13T00:09:51.219Z,13.30
2022-09-13T00:12:18.706Z,13.30
2022-09-13T00:14:46.354Z,13.30
2022-09-13T00:17:13.827Z,13.30
2022-09-13T00:19:41.288Z,13.30
2022-09-13T00:22:08.983Z,13.40
2022-09-13T00:24:37.415Z,13.40
2022-09-13T00:27:05.029Z,13.40
2022-09-13T00:29:33.080Z,13.40
2022-09-13T00:32:00.642Z,13.50
2022-09-13T00:34:28.281Z,13.50
2022-09-13T00:36:55.831Z,13.50
2022-09-13T00:39:23.341Z,13.50
2022-09-13T00:41:50.850Z,13.50
2022-09-13T00:44:55.680Z,13.50
2022-09-13T00:47:40.912Z,13.50
2022-09-13T00:50:25.614Z,13.60
2022-09-13T00:53:03.060Z,13.60
2022-09-13T00:55:57.538Z,13.70
2022-09-13T00:58:30.848Z,13.70
2022-09-13T01:01:01.498Z,13.70
2022-09-13T01:03:31.880Z,13.70
2022-09-13T01:06:06.162Z,13.70
2022-09-13T01:08:35.375Z,13.80
2022-09-13T01:11:06.456Z,13.80
2022-09-13T01:13:36.421Z,13.80
2022-09-13T01:16:04.131Z,13.80
2022-09-13T01:18:31.669Z,13.80
2022-09-13T01:21:18.016Z,13.80
2022-09-13T01:23:51.249Z,13.80
2022-09-13T01:26:30.678Z,13.80
2022-09-13T01:29:14.543Z,13.80
2022-09-13T01:32:19.864Z,13.80
2022-09-13T01:34:47.313Z,13.80
2022-09-13T01:37:34.648Z,13.80
2022-09-13T01:40:40.305Z,13.80
2022-09-13T01:43:10.572Z,13.80
2022-09-13T01:45:53.801Z,13.80
2022-09-13T01:48:35.466Z,13.80
2022-09-13T01:51:13.386Z,13.80
2022-09-13T01:53:58.608Z,13.80
2022-09-13T01:56:33.165Z,13.80
2022-09-13T01:59:08.310Z,13.80
2022-09-13T02:02:02.554Z,13.70
2022-09-13T02:04:37.729Z,13.80
2022-09-13T02:07:14.326Z,13.80
2022-09-13T02:09:50.635Z,13.80
2022-09-13T02:12:24.827Z,13.80
2022-09-13T02:15:03.502Z,13.80
2022-09-13T02:17:45.973Z,13.80
2022-09-13T02:20:21.170Z,13.80
2022-09-13T02:22:54.443Z,13.80
2022-09-13T02:25:25.491Z,13.80
2022-09-13T02:27:58.948Z,13.70
2022-09-13T02:30:28.496Z,13.70
2022-09-13T02:33:07.582Z,13.70
2022-09-13T02:36:02.628Z,13.60
2022-09-13T02:38:58.462Z,13.60
2022-09-13T02:41:39.431Z,13.60
2022-09-13T02:44:12.505Z,13.50
2022-09-13T02:47:10.545Z,13.50
2022-09-13T02:49:53.076Z,13.40
2022-09-13T02:52:33.680Z,13.40
2022-09-13T02:55:04.250Z,13.40
2022-09-13T02:57:48.140Z,13.30
2022-09-13T03:00:15.754Z,13.30
2022-09-13T03:02:46.007Z,13.30
2022-09-13T03:05:13.539Z,13.30
2022-09-13T03:07:40.992Z,13.30
2022-09-13T03:10:12.452Z,13.30
2022-09-13T03:12:48.838Z,13.30
2022-09-13T03:15:35.576Z,13.30
2022-09-13T03:18:41.584Z,13.30
2022-09-13T03:21:24.295Z,13.30
2022-09-13T03:23:59.324Z,13.30
2022-09-13T03:26:42.666Z,13.30
2022-09-13T03:30:01.168Z,13.30
2022-09-13T03:32:34.228Z,13.20
2022-09-13T03:35:34.268Z,13.30
2022-09-13T03:38:07.619Z,13.30
2022-09-13T03:40:45.803Z,13.30
2022-09-13T03:43:35.755Z,13.20
2022-09-13T03:46:12.160Z,13.20
2022-09-13T03:48:41.719Z,13.20
2022-09-13T03:51:10.171Z,13.20
2022-09-13T03:53:46.262Z,13.20
2022-09-13T03:56:14.947Z,13.20
2022-09-13T03:58:42.704Z,13.20
2022-09-13T04:01:10.597Z,13.20
2022-09-13T04:03:38.823Z,13.20
2022-09-13T04:06:07.009Z,13.20
2022-09-13T04:08:35.679Z,13.20
2022-09-13T04:11:03.350Z,13.20
2022-09-13T04:13:30.802Z,13.20
2022-09-13T04:16:02.627Z,13.20
2022-09-13T04:18:31.060Z,13.20
2022-09-13T04:21:00.744Z,13.20
2022-09-13T04:23:30.077Z,13.20
2022-09-13T04:26:02.622Z,13.20
2022-09-13T04:28:31.011Z,13.20
2022-09-13T04:30:58.635Z,13.20
2022-09-13T04:33:26.176Z,13.20
2022-09-13T04:36:00.503Z,13.20
2022-09-13T04:38:28.504Z,13.10
2022-09-13T04:40:56.585Z,13.10
2022-09-13T04:43:24.655Z,13.10
2022-09-13T04:45:52.502Z,13.10
2022-09-13T04:48:20.032Z,13.10
2022-09-13T04:50:47.663Z,13.00
2022-09-13T04:53:15.098Z,13.10
2022-09-13T04:55:42.544Z,13.10
2022-09-13T04:58:10.250Z,13.10
2022-09-13T05:00:37.685Z,13.10
2022-09-13T05:03:05.144Z,13.00
2022-09-13T05:05:32.682Z,13.00
2022-09-13T05:08:00.252Z,13.10
2022-09-13T05:10:28.071Z,13.00
2022-09-13T05:12:55.784Z,13.00
2022-09-13T05:15:23.284Z,13.00
2022-09-13T05:17:50.726Z,13.00
2022-09-13T05:20:18.591Z,13.00
2022-09-13T05:22:46.111Z,13.00
2022-09-13T05:25:14.092Z,13.00
2022-09-13T05:27:41.544Z,13.00
2022-09-13T05:30:09.350Z,13.00
2022-09-13T05:32:36.758Z,13.00
2022-09-13T05:35:04.627Z,13.00
2022-09-13T05:37:32.095Z,13.00
2022-09-13T05:40:14.985Z,13.10
2022-09-13T05:42:42.571Z,13.00
2022-09-13T05:45:10.475Z,13.00
2022-09-13T05:47:38.099Z,13.00
2022-09-13T05:50:10.825Z,13.00
2022-09-13T05:52:41.104Z,13.00
2022-09-13T05:55:09.786Z,13.00
2022-09-13T05:57:37.755Z,13.00
2022-09-13T06:00:07.356Z,13.00
2022-09-13T06:02:39.884Z,13.00
2022-09-13T06:05:11.412Z,13.00
2022-09-13T06:07:42.657Z,13.00
2022-09-13T06:10:11.537Z,13.10
2022-09-13T06:12:38.987Z,13.00
2022-09-13T06:15:07.167Z,13.00
2022-09-13T06:17:34.663Z,13.00
2022-09-13T06:20:02.418Z,13.00
2022-09-13T06:22:33.294Z,13.00
2022-09-13T06:25:01.078Z,13.10
2022-09-13T06:27:30.282Z,13.10
2022-09-13T06:29:57.883Z,13.00
2022-09-13T06:32:25.602Z,13.10
2022-09-13T06:34:53.097Z,13.10
2022-09-13T06:37:20.531Z,13.10
2022-09-13T06:39:48.137Z,13.10
2022-09-13T06:42:15.571Z,13.00
2022-09-13T06:44:48.729Z,13.10
2022-09-13T06:47:16.212Z,13.10
2022-09-13T06:49:43.812Z,13.10
2022-09-13T06:52:11.348Z,13.10
2022-09-13T06:54:39.574Z,13.20
2022-09-13T06:57:07.177Z,13.20
2022-09-13T06:59:35.146Z,13.20
2022-09-13T07:02:03.052Z,13.20
2022-09-13T07:04:33.601Z,13.20
2022-09-13T07:07:01.299Z,13.20
2022-09-13T07:09:28.960Z,13.20
2022-09-13T07:11:57.411Z,13.20
2022-09-13T07:14:27.019Z,13.20
2022-09-13T07:16:55.285Z,13.30
2022-09-13T07:19:26.574Z,13.30
2022-09-13T07:21:55.125Z,13.30
2022-09-13T07:24:23.595Z,13.30
2022-09-13T07:26:51.188Z,13.40
2022-09-13T07:29:23.728Z,13.40
2022-09-13T07:31:55.290Z,13.40
2022-09-13T07:34:25.471Z,13.50
2022-09-13T07:36:53.540Z,13.60
2022-09-13T07:39:23.011Z,13.60
2022-09-13T07:41:51.676Z,13.60
2022-09-13T07:44:19.194Z,13.70
2022-09-13T07:46:46.709Z,13.70
2022-09-13T07:49:19.075Z,13.70
2022-09-13T07:51:46.768Z,13.80
2022-09-13T07:54:16.736Z,13.90
2022-09-13T07:56:44.653Z,13.80
2022-09-13T08:00:46.622Z,13.70
2022-09-13T08:03:14.337Z,13.80
2022-09-13T08:05:42.220Z,13.90
2022-09-13T08:08:09.701Z,13.90
2022-09-13T08:10:37.181Z,13.80
2022-09-13T08:13:04.860Z,13.80
2022-09-13T08:15:32.416Z,13.80
2022-09-13T08:18:03.016Z,13.80
2022-09-13T08:20:30.481Z,13.80
2022-09-13T08:22:57.989Z,13.90
2022-09-13T08:25:27.658Z,13.90
2022-09-13T08:27:55.280Z,14.10
2022-09-13T08:30:23.023Z,14.10
2022-09-13T08:32:51.744Z,14.20
2022-09-13T08:35:19.187Z,14.30
2022-09-13T08:37:46.782Z,14.50
2022-09-13T08:40:15.580Z,14.40
2022-09-13T08:43:12.060Z,14.60
2022-09-13T08:45:40.559Z,14.50
2022-09-13T08:48:33.700Z,14.60
2022-09-13T08:53:10.283Z,14.60
2022-09-13T08:55:59.875Z,14.70
2022-09-13T08:58:52.408Z,14.90
2022-09-13T09:01:33.181Z,14.80
2022-09-13T09:04:29.915Z,14.80
2022-09-13T09:07:06.246Z,14.80
2022-09-13T09:09:40.086Z,14.90
2022-09-13T09:12:21.478Z,14.90
2022-09-13T09:15:04.219Z,14.80
2022-09-13T09:17:45.845Z,14.80
2022-09-13T09:20:28.491Z,14.80
2022-09-13T09:22:56.273Z,14.90
2022-09-13T09:25:26.793Z,14.80
2022-09-13T09:27:54.570Z,14.90
2022-09-13T09:30:22.206Z,14.80
2022-09-13T09:32:52.671Z,14.80
2022-09-13T09:35:42.879Z,14.90
2022-09-13T09:38:32.144Z,14.90
2022-09-13T09:41:05.852Z,14.90
2022-09-13T09:43:42.876Z,15.00
2022-09-13T09:46:13.474Z,15.20
2022-09-13T09:48:50.222Z,15.30
2022-09-13T09:51:22.266Z,15.40
2022-09-13T09:53:55.747Z,15.40
2022-09-13T09:56:26.307Z,15.50
2022-09-13T09:58:55.999Z,15.60
2022-09-13T10:01:27.809Z,15.60
2022-09-13T10:04:12.412Z,15.50
2022-09-13T10:06:42.042Z,15.50
2022-09-13T10:09:22.577Z,15.50
2022-09-13T10:11:56.418Z,15.70
2022-09-13T10:14:49.752Z,15.80
2022-09-13T10:17:27.951Z,15.70
2022-09-13T10:20:01.351Z,15.70
2022-09-13T10:22:31.214Z,15.90
2022-09-13T10:25:37.165Z,16.10
2022-09-13T10:28:09.731Z,16.20
2022-09-13T10:30:48.694Z,16.30
2022-09-13T10:33:33.905Z,16.20
2022-09-13T10:36:07.095Z,16.10
2022-09-13T10:38:40.860Z,16.00
2022-09-13T10:41:22.320Z,16.10
2022-09-13T10:43:56.445Z,16.20
2022-09-13T10:46:24.604Z,16.20
2022-09-13T10:48:57.975Z,16.20
2022-09-13T10:51:28.175Z,16.10
2022-09-13T10:54:20.361Z,16.40
2022-09-13T10:56:48.954Z,16.60
2022-09-13T10:59:21.588Z,16.70
2022-09-13T11:02:13.822Z,16.40
2022-09-13T11:04:50.079Z,16.40
2022-09-13T11:07:45.077Z,16.90
2022-09-13T11:10:12.488Z,17.30
2022-09-13T11:13:06.251Z,17.40
2022-09-13T11:15:55.983Z,17.10
2022-09-13T11:18:26.478Z,17.30
2022-09-13T11:21:21.561Z,17.00
2022-09-13T11:24:01.423Z,16.70
2022-09-13T11:26:58.069Z,16.90
2022-09-13T11:29:34.364Z,16.90
2022-09-13T11:32:13.565Z,17.10
2022-09-13T11:34:59.607Z,17.50
2022-09-13T11:37:40.667Z,17.50
2022-09-13T11:40:35.895Z,17.50
2022-09-13T11:43:09.128Z,17.30
2022-09-13T11:45:59.374Z,17.30
2022-09-13T11:48:45.621Z,17.30
2022-09-13T11:51:59.168Z,17.40
2022-09-13T11:54:50.204Z,17.40
2022-09-13T11:57:41.608Z,17.70
2022-09-13T12:00:45.592Z,17.80
2022-09-13T12:03:35.021Z,17.70
2022-09-13T12:06:14.114Z,17.60
2022-09-13T12:08:49.734Z,17.40
2022-09-13T12:11:32.839Z,17.30
2022-09-13T12:14:04.792Z,17.50
2022-09-13T12:16:37.744Z,17.70
2022-09-13T12:19:21.911Z,17.50
2022-09-13T12:21:52.037Z,17.60
2022-09-13T12:24:42.550Z,17.80
2022-09-13T12:27:13.015Z,18.10
2022-09-13T12:29:44.262Z,18.20
2022-09-13T12:32:13.213Z,18.10
2022-09-13T12:34:43.528Z,18.00
2022-09-13T12:37:16.829Z,18.30
2022-09-13T12:39:53.497Z,18.40
2022-09-13T12:42:20.954Z,18.50
2022-09-13T12:45:22.684Z,18.60
2022-09-13T12:48:22.546Z,18.50
2022-09-13T12:51:27.467Z,18.40
2022-09-13T12:54:15.521Z,18.60
2022-09-13T12:56:47.511Z,18.40
2022-09-13T12:59:39.041Z,18.40
2022-09-13T13:02:35.435Z,18.60
2022-09-13T13:05:28.746Z,18.30
2022-09-13T13:08:03.069Z,18.60
2022-09-13T13:10:36.948Z,18.70
2022-09-13T13:13:31.278Z,18.80
2022-09-13T13:16:03.121Z,18.60
2022-09-13T13:18:36.769Z,18.60
2022-09-13T13:21:08.099Z,18.70
2022-09-13T13:23:39.086Z,18.90
2022-09-13T13:26:21.659Z,18.70
2022-09-13T13:28:52.122Z,18.80
2022-09-13T13:31:25.231Z,18.60
2022-09-13T13:34:04.314Z,18.80
2022-09-13T13:36:44.071Z,19.00
2022-09-13T13:39:24.214Z,18.90
2022-09-13T13:41:58.846Z,19.10
2022-09-13T13:44:26.347Z,19.10
2022-09-13T13:46:54.862Z,19.20
2022-09-13T13:49:31.346Z,19.00
2022-09-13T13:52:17.893Z,19.20
2022-09-13T13:54:45.427Z,19.10
2022-09-13T13:57:43.733Z,18.80
2022-09-13T14:00:17.801Z,18.90
2022-09-13T14:02:53.398Z,18.90
2022-09-13T14:05:50.446Z,19.00
2022-09-13T14:08:26.612Z,18.90
2022-09-13T14:11:19.018Z,19.00
2022-09-13T14:13:59.944Z,18.80
2022-09-13T14:17:04.485Z,18.90
2022-09-13T14:19:44.509Z,19.10
2022-09-13T14:22:20.449Z,19.10
2022-09-13T14:24:49.110Z,19.10
2022-09-13T14:27:22.988Z,18.90
2022-09-13T14:29:53.943Z,19.00
2022-09-13T14:32:24.830Z,18.80
2022-09-13T14:35:05.369Z,19.00
2022-09-13T14:37:35.710Z,19.20
2022-09-13T14:40:22.710Z,19.30
2022-09-13T14:42:54.135Z,19.20
2022-09-13T14:45:30.174Z,19.30
2022-09-13T14:47:59.744Z,19.40
2022-09-13T14:50:31.609Z,19.20
2022-09-13T14:53:04.068Z,19.10
2022-09-13T14:55:36.370Z,19.10
2022-09-13T14:58:08.100Z,19.00
2022-09-13T15:00:49.177Z,18.90
2022-09-13T15:03:18.752Z,18.90
2022-09-13T15:05:57.775Z,18.80
2022-09-13T15:08:34.077Z,18.80
2022-09-13T15:11:04.137Z,18.60
2022-09-13T15:13:33.258Z,18.70
2022-09-13T15:16:00.866Z,18.60
2022-09-13T15:18:36.424Z,18.60
2022-09-13T15:21:06.471Z,18.50
2022-09-13T15:23:41.495Z,18.40
2022-09-13T15:26:22.383Z,18.40
2022-09-13T15:28:59.323Z,18.30
2022-09-13T15:31:35.000Z,18.30
2022-09-13T15:34:22.369Z,18.20
2022-09-13T15:37:01.827Z,17.90
2022-09-13T15:39:29.699Z,18.00
2022-09-13T15:42:02.760Z,18.10
2022-09-13T15:44:30.701Z,18.20
2022-09-13T15:47:04.981Z,18.20
2022-09-13T15:49:32.850Z,18.10
2022-09-13T15:52:05.109Z,18.10
2022-09-13T15:54:41.022Z,17.90
2022-09-13T15:57:10.223Z,17.90
2022-09-13T15:59:37.680Z,17.70
2022-09-13T16:02:20.914Z,17.80
2022-09-13T16:04:48.924Z,17.60
2022-09-13T16:07:17.582Z,17.50
2022-09-13T16:09:45.766Z,17.60
2022-09-13T16:12:13.492Z,17.60
2022-09-13T16:14:41.625Z,17.60
2022-09-13T16:17:24.486Z,17.30
2022-09-13T16:19:52.876Z,17.40
2022-09-13T16:22:20.731Z,17.50
2022-09-13T16:24:48.261Z,17.50
2022-09-13T16:27:17.892Z,17.50
2022-09-13T16:29:45.919Z,17.30
2022-09-13T16:32:13.574Z,17.40
2022-09-13T16:34:41.127Z,17.40
2022-09-13T16:37:08.833Z,17.30
2022-09-13T16:39:36.856Z,17.30
2022-09-13T16:42:05.457Z,17.20
2022-09-13T16:44:32.966Z,17.20
2022-09-13T16:47:00.696Z,17.20
2022-09-13T16:49:28.384Z,17.30
2022-09-13T16:51:59.400Z,17.20
2022-09-13T16:54:27.917Z,17.20
2022-09-13T16:56:55.466Z,17.20
2022-09-13T16:59:22.955Z,17.10
2022-09-13T17:01:50.499Z,17.10
2022-09-13T17:04:18.466Z,17.00
2022-09-13T17:06:46.106Z,17.00
2022-09-13T17:09:13.726Z,16.90
2022-09-13T17:11:44.520Z,17.00
2022-09-13T17:14:17.887Z,16.90
2022-09-13T17:16:48.312Z,16.80
2022-09-13T17:19:21.338Z,16.90
2022-09-13T17:21:50.328Z,16.80
2022-09-13T17:24:18.515Z,16.80
2022-09-13T17:26:47.013Z,16.70
2022-09-13T17:29:15.286Z,16.70
2022-09-13T17:31:43.641Z,16.70
2022-09-13T17:34:13.027Z,16.50
2022-09-13T17:36:41.705Z,16.40
2022-09-13T17:39:10.294Z,16.30
2022-09-13T17:41:37.948Z,16.10
2022-09-13T17:44:06.225Z,16.20
2022-09-13T17:46:36.701Z,16.20
2022-09-13T17:49:04.650Z,16.10
2022-09-13T17:51:33.684Z,16.10
2022-09-13T17:54:04.941Z,16.10
2022-09-13T17:56:36.232Z,16.00
2022-09-13T17:59:10.180Z,16.00
2022-09-13T18:01:40.864Z,15.90
2022-09-13T18:04:10.423Z,15.90
2022-09-13T18:06:40.741Z,15.80
2022-09-13T18:09:10.042Z,15.80
2022-09-13T18:11:37.622Z,15.80
2022-09-13T18:14:05.621Z,15.80
2022-09-13T18:16:33.711Z,15.80
2022-09-13T18:19:01.633Z,15.80
2022-09-13T18:21:29.652Z,15.70
2022-09-13T18:23:58.953Z,15.60
2022-09-13T18:26:28.031Z,15.60
2022-09-13T18:29:01.878Z,15.70
2022-09-13T18:31:31.353Z,15.60
2022-09-13T18:34:01.649Z,15.70
2022-09-13T18:36:30.381Z,15.70
2022-09-13T18:38:58.126Z,15.60
2022-09-13T18:41:27.952Z,15.50
2022-09-13T18:43:56.399Z,15.60
2022-09-13T18:46:27.068Z,15.70
2022-09-13T18:48:57.665Z,15.70
2022-09-13T18:51:28.382Z,15.70
2022-09-13T18:53:58.223Z,15.80
2022-09-13T18:56:26.550Z,15.80
2022-09-13T18:58:54.885Z,15.80
2022-09-13T19:01:23.842Z,15.70
2022-09-13T19:04:03.580Z,15.80
2022-09-13T19:06:36.367Z,15.80
2022-09-13T19:09:06.073Z,15.80
2022-09-13T19:11:52.278Z,15.80
2022-09-13T19:14:26.135Z,15.80
2022-09-13T19:16:56.517Z,15.80
2022-09-13T19:19:24.606Z,15.80
2022-09-13T19:21:52.188Z,15.80
2022-09-13T19:24:20.766Z,15.80
2022-09-13T19:26:51.306Z,15.60
2022-09-13T19:29:21.316Z,15.70
2022-09-13T19:31:53.631Z,15.60
2022-09-13T19:34:23.037Z,15.60
2022-09-13T19:36:57.612Z,15.60
2022-09-13T19:39:29.552Z,15.60
2022-09-13T19:42:02.918Z,15.60
2022-09-13T19:44:31.194Z,15.60
2022-09-13T19:52:22.061Z,15.70
2022-09-13T19:54:52.005Z,15.60
2022-09-13T19:57:20.248Z,15.50
2022-09-13T19:59:48.432Z,15.50
2022-09-13T20:02:15.982Z,15.50
2022-09-13T20:04:43.641Z,15.50
2022-09-13T20:07:13.411Z,15.40
2022-09-13T20:09:42.426Z,15.50
2022-09-13T20:12:11.425Z,15.50
2022-09-13T20:14:39.259Z,15.40
2022-09-13T20:17:07.182Z,15.40
2022-09-13T20:19:46.401Z,15.50
2022-09-13T20:22:16.777Z,15.40
2022-09-13T20:24:44.710Z,15.30
2022-09-13T20:27:12.516Z,15.30
2022-09-13T20:29:43.131Z,15.20
2022-09-13T20:32:11.387Z,15.20
2022-09-13T20:34:39.349Z,15.10
2022-09-13T20:37:07.150Z,15.10
2022-09-13T20:39:35.082Z,15.20
2022-09-13T20:42:02.839Z,15.10
2022-09-13T20:44:30.612Z,15.10
2022-09-13T20:46:58.821Z,15.10
2022-09-13T20:49:26.640Z,15.20
2022-09-13T20:51:54.613Z,15.20
2022-09-13T20:54:22.326Z,15.10
2022-09-13T20:56:52.901Z,15.00
2022-09-13T20:59:21.309Z,14.90
2022-09-13T21:01:49.108Z,14.90
2022-09-13T21:04:17.628Z,14.90
2022-09-13T21:07:03.835Z,14.90
2022-09-13T21:09:32.580Z,14.90
2022-09-13T21:12:01.931Z,14.90
2022-09-13T21:14:32.366Z,14.80
2022-09-13T21:17:00.605Z,14.80
2022-09-13T21:19:29.489Z,14.80
2022-09-13T21:21:56.967Z,14.70
2022-09-13T21:24:25.020Z,14.60
2022-09-13T21:26:52.799Z,14.60
2022-09-13T21:29:20.251Z,14.60
2022-09-13T21:31:47.814Z,14.50
2022-09-13T21:34:17.292Z,14.50
2022-09-13T21:36:46.196Z,14.40
2022-09-13T21:39:15.115Z,14.30
2022-09-13T21:41:43.541Z,14.30
2022-09-13T21:44:11.533Z,14.30
2022-09-13T21:46:40.479Z,14.30
2022-09-13T21:49:11.548Z,14.40
2022-09-13T21:51:43.583Z,14.40
2022-09-13T21:54:14.285Z,14.40
2022-09-13T21:56:44.099Z,14.30
2022-09-13T21:59:15.359Z,14.30
2022-09-13T22:01:46.841Z,14.20
2022-09-13T22:04:18.061Z,14.20
2022-09-13T22:06:47.482Z,14.10
2022-09-13T22:09:15.593Z,14.00
2022-09-13T22:11:45.328Z,14.00
2022-09-13T22:14:17.087Z,14.00
2022-09-13T22:16:46.725Z,14.10
2022-09-13T22:19:20.745Z,14.00
2022-09-13T22:21:50.792Z,14.00
2022-09-13T22:24:23.858Z,13.90
2022-09-13T22:26:53.077Z,13.90
2022-09-13T22:29:21.194Z,13.90
2022-09-13T22:31:50.557Z,13.90
2022-09-13T22:34:21.710Z,13.80
2022-09-13T22:36:49.293Z,13.80
2022-09-13T22:39:18.001Z,13.80
2022-09-13T22:41:45.886Z,13.70
2022-09-13T22:44:13.881Z,13.60
2022-09-13T22:46:46.284Z,13.60
2022-09-13T22:49:22.057Z,13.50
2022-09-13T22:51:49.573Z,13.50
2022-09-13T22:54:18.700Z,13.50
2022-09-13T22:56:46.928Z,13.60
2022-09-13T22:59:20.396Z,13.60
2022-09-13T23:01:49.133Z,13.60
2022-09-13T23:04:16.664Z,13.50
2022-09-13T23:06:44.445Z,13.40
2022-09-13T23:09:15.317Z,13.40
2022-09-13T23:11:43.180Z,13.50
2022-09-13T23:14:14.134Z,13.50
2022-09-13T23:16:46.696Z,13.40
2022-09-13T23:19:15.233Z,13.40
2022-09-13T23:21:43.782Z,13.40
2022-09-13T23:24:14.756Z,13.30
2022-09-13T23:26:43.080Z,13.30
2022-09-13T23:29:16.130Z,13.40
2022-09-13T23:31:44.340Z,13.40
2022-09-13T23:34:12.885Z,13.40
2022-09-13T23:36:41.921Z,13.50
2022-09-13T23:39:16.710Z,13.50
2022-09-13T23:41:47.187Z,13.50
2022-09-13T23:44:15.554Z,13.50
2022-09-13T23:46:43.636Z,13.50
2022-09-13T23:49:11.201Z,13.40
2022-09-13T23:51:38.697Z,13.40
2022-09-13T23:54:07.130Z,13.50
2022-09-13T23:56:39.737Z,13.40
2022-09-13T23:59:07.479Z,13.40
